sensor_id;sensor_type;location;lat;lon;timestamp;P1;durP1;ratioP1;P2;durP2;ratioP2
30080;SDS011;16902;50.816;12.828;2023-02-01T00:02:55;8.63;;;5.63;;
30080;SDS011;16902;50.816;12.828;2023-02-01T00:07:57;7.35;;;5.78;;
30080;SDS011;16902;50.816;12.828;2023-02-01T00:12:59;8.82;;;5.32;;
30080;SDS011;16902;50.816;12.828;2023-02-01T00:18:01;6.85;;;4.78;;
30080;SDS011;16902;50.816;12.828;2023-02-01T00:23:03;10.18;;;6.05;;
30080;SDS011;16902;50.816;12.828;2023-02-01T00:28:04;11.35;;;5.40;;
30080;SDS011;16902;50.816;12.828;2023-02-01T00:33:06;9.05;;;5.25;;
30080;SDS011;16902;50.816;12.828;2023-02-01T00:38:08;9.93;;;4.85;;
30080;SDS011;16902;50.816;12.828;2023-02-01T00:43:10;13.65;;;5.30;;
30080;SDS011;16902;50.816;12.828;2023-02-01T00:48:12;10.23;;;5.03;;
30080;SDS011;16902;50.816;12.828;2023-02-01T00:53:14;7.90;;;4.68;;
30080;SDS011;16902;50.816;12.828;2023-02-01T00:58:16;9.02;;;4.57;;
30080;SDS011;16902;50.816;12.828;2023-02-01T01:03:17;9.75;;;4.70;;
30080;SDS011;16902;50.816;12.828;2023-02-01T01:08:19;5.38;;;4.30;;
30080;SDS011;16902;50.816;12.828;2023-02-01T01:13:21;8.57;;;5.38;;
30080;SDS011;16902;50.816;12.828;2023-02-01T01:18:23;10.98;;;5.30;;
30080;SDS011;16902;50.816;12.828;2023-02-01T01:23:25;8.80;;;5.10;;
30080;SDS011;16902;50.816;12.828;2023-02-01T01:28:28;8.95;;;4.63;;
30080;SDS011;16902;50.816;12.828;2023-02-01T01:33:30;9.13;;;5.32;;
30080;SDS011;16902;50.816;12.828;2023-02-01T01:38:31;8.98;;;5.10;;
30080;SDS011;16902;50.816;12.828;2023-02-01T01:48:53;13.52;;;4.95;;
30080;SDS011;16902;50.816;12.828;2023-02-01T01:54:27;6.80;;;4.57;;
30080;SDS011;16902;50.816;12.828;2023-02-01T01:59:31;8.63;;;5.20;;
30080;SDS011;16902;50.816;12.828;2023-02-01T02:04:36;10.90;;;4.80;;
30080;SDS011;16902;50.816;12.828;2023-02-01T02:09:38;8.88;;;5.05;;
30080;SDS011;16902;50.816;12.828;2023-02-01T02:14:48;11.10;;;5.07;;
30080;SDS011;16902;50.816;12.828;2023-02-01T02:41:18;7.80;;;4.90;;
30080;SDS011;16902;50.816;12.828;2023-02-01T02:46:47;12.43;;;5.47;;
30080;SDS011;16902;50.816;12.828;2023-02-01T02:52:17;7.70;;;4.45;;
30080;SDS011;16902;50.816;12.828;2023-02-01T02:57:41;7.32;;;4.57;;
30080;SDS011;16902;50.816;12.828;2023-02-01T03:03:04;8.23;;;5.05;;
30080;SDS011;16902;50.816;12.828;2023-02-01T03:08:26;8.90;;;4.30;;
30080;SDS011;16902;50.816;12.828;2023-02-01T03:24:03;8.23;;;4.00;;
30080;SDS011;16902;50.816;12.828;2023-02-01T03:29:14;11.02;;;5.10;;
30080;SDS011;16902;50.816;12.828;2023-02-01T03:34:21;6.25;;;4.75;;
30080;SDS011;16902;50.816;12.828;2023-02-01T03:39:31;8.63;;;4.63;;
30080;SDS011;16902;50.816;12.828;2023-02-01T03:44:38;7.97;;;5.15;;
30080;SDS011;16902;50.816;12.828;2023-02-01T03:49:49;10.13;;;4.60;;
30080;SDS011;16902;50.816;12.828;2023-02-01T03:54:56;11.60;;;4.90;;
30080;SDS011;16902;50.816;12.828;2023-02-01T04:00:09;5.38;;;4.28;;
30080;SDS011;16902;50.816;12.828;2023-02-01T04:05:19;9.13;;;5.03;;
30080;SDS011;16902;50.816;12.828;2023-02-01T04:10:37;6.57;;;4.35;;
30080;SDS011;16902;50.816;12.828;2023-02-01T04:15:39;10.20;;;5.28;;
30080;SDS011;16902;50.816;12.828;2023-02-01T04:20:42;8.48;;;4.25;;
30080;SDS011;16902;50.816;12.828;2023-02-01T04:25:44;12.50;;;5.20;;
30080;SDS011;16902;50.816;12.828;2023-02-01T04:30:46;5.90;;;4.70;;
30080;SDS011;16902;50.816;12.828;2023-02-01T04:35:48;7.45;;;4.45;;
30080;SDS011;16902;50.816;12.828;2023-02-01T04:40:50;8.55;;;4.40;;
30080;SDS011;16902;50.816;12.828;2023-02-01T04:45:52;10.07;;;4.88;;
30080;SDS011;16902;50.816;12.828;2023-02-01T04:50:55;10.90;;;5.38;;
30080;SDS011;16902;50.816;12.828;2023-02-01T04:55:57;10.90;;;5.47;;
30080;SDS011;16902;50.816;12.828;2023-02-01T05:00:59;11.63;;;4.82;;
30080;SDS011;16902;50.816;12.828;2023-02-01T05:06:05;11.05;;;5.30;;
30080;SDS011;16902;50.816;12.828;2023-02-01T05:11:07;14.98;;;5.78;;
30080;SDS011;16902;50.816;12.828;2023-02-01T05:16:29;7.55;;;5.13;;
30080;SDS011;16902;50.816;12.828;2023-02-01T05:21:31;13.10;;;5.18;;
30080;SDS011;16902;50.816;12.828;2023-02-01T05:26:33;9.02;;;5.60;;
30080;SDS011;16902;50.816;12.828;2023-02-01T05:31:35;10.35;;;5.50;;
30080;SDS011;16902;50.816;12.828;2023-02-01T05:36:37;9.35;;;5.38;;
30080;SDS011;16902;50.816;12.828;2023-02-01T05:41:39;9.52;;;4.63;;
30080;SDS011;16902;50.816;12.828;2023-02-01T05:46:41;9.40;;;4.45;;
30080;SDS011;16902;50.816;12.828;2023-02-01T05:51:43;12.68;;;4.55;;
30080;SDS011;16902;50.816;12.828;2023-02-01T05:56:44;14.90;;;4.88;;
30080;SDS011;16902;50.816;12.828;2023-02-01T06:01:46;7.28;;;4.30;;
30080;SDS011;16902;50.816;12.828;2023-02-01T06:06:48;7.35;;;4.20;;
30080;SDS011;16902;50.816;12.828;2023-02-01T06:11:51;8.63;;;4.57;;
30080;SDS011;16902;50.816;12.828;2023-02-01T06:16:54;6.80;;;4.80;;
30080;SDS011;16902;50.816;12.828;2023-02-01T06:21:56;10.27;;;5.05;;
30080;SDS011;16902;50.816;12.828;2023-02-01T06:26:58;10.32;;;4.97;;
30080;SDS011;16902;50.816;12.828;2023-02-01T06:31:59;13.73;;;5.75;;
30080;SDS011;16902;50.816;12.828;2023-02-01T06:37:01;8.60;;;5.05;;
30080;SDS011;16902;50.816;12.828;2023-02-01T06:42:03;14.50;;;5.90;;
30080;SDS011;16902;50.816;12.828;2023-02-01T06:47:05;10.15;;;5.55;;
30080;SDS011;16902;50.816;12.828;2023-02-01T06:52:09;10.20;;;5.47;;
30080;SDS011;16902;50.816;12.828;2023-02-01T06:57:11;13.88;;;5.93;;
30080;SDS011;16902;50.816;12.828;2023-02-01T07:02:13;16.73;;;6.32;;
30080;SDS011;16902;50.816;12.828;2023-02-01T07:07:15;11.85;;;5.70;;
30080;SDS011;16902;50.816;12.828;2023-02-01T07:12:17;9.25;;;5.72;;
30080;SDS011;16902;50.816;12.828;2023-02-01T07:17:20;11.50;;;6.07;;
30080;SDS011;16902;50.816;12.828;2023-02-01T07:22:22;9.48;;;6.30;;
30080;SDS011;16902;50.816;12.828;2023-02-01T07:27:24;9.70;;;5.10;;
30080;SDS011;16902;50.816;12.828;2023-02-01T07:32:27;12.48;;;6.20;;
30080;SDS011;16902;50.816;12.828;2023-02-01T07:37:29;12.82;;;6.15;;
30080;SDS011;16902;50.816;12.828;2023-02-01T07:42:32;15.73;;;6.57;;
30080;SDS011;16902;50.816;12.828;2023-02-01T07:47:33;11.05;;;6.32;;
30080;SDS011;16902;50.816;12.828;2023-02-01T07:52:35;13.30;;;5.85;;
30080;SDS011;16902;50.816;12.828;2023-02-01T07:57:37;10.27;;;6.28;;
30080;SDS011;16902;50.816;12.828;2023-02-01T08:02:39;11.23;;;6.00;;
30080;SDS011;16902;50.816;12.828;2023-02-01T08:07:41;14.35;;;6.13;;
30080;SDS011;16902;50.816;12.828;2023-02-01T08:12:43;9.98;;;6.20;;
30080;SDS011;16902;50.816;12.828;2023-02-01T08:17:50;12.43;;;5.70;;
30080;SDS011;16902;50.816;12.828;2023-02-01T08:22:52;10.95;;;6.03;;
30080;SDS011;16902;50.816;12.828;2023-02-01T08:27:55;15.57;;;6.15;;
30080;SDS011;16902;50.816;12.828;2023-02-01T08:32:57;7.07;;;5.15;;
30080;SDS011;16902;50.816;12.828;2023-02-01T08:37:59;8.35;;;5.72;;
30080;SDS011;16902;50.816;12.828;2023-02-01T08:43:01;8.60;;;5.53;;
30080;SDS011;16902;50.816;12.828;2023-02-01T08:48:03;8.38;;;4.88;;
30080;SDS011;16902;50.816;12.828;2023-02-01T08:53:05;8.18;;;4.97;;
30080;SDS011;16902;50.816;12.828;2023-02-01T08:58:06;8.65;;;4.32;;
30080;SDS011;16902;50.816;12.828;2023-02-01T09:03:09;7.50;;;4.10;;
30080;SDS011;16902;50.816;12.828;2023-02-01T09:08:12;9.82;;;4.63;;
30080;SDS011;16902;50.816;12.828;2023-02-01T09:13:16;9.77;;;5.47;;
30080;SDS011;16902;50.816;12.828;2023-02-01T09:18:18;9.70;;;4.65;;
30080;SDS011;16902;50.816;12.828;2023-02-01T09:23:20;10.57;;;5.22;;
30080;SDS011;16902;50.816;12.828;2023-02-01T09:28:21;12.10;;;5.63;;
30080;SDS011;16902;50.816;12.828;2023-02-01T09:33:24;10.32;;;4.72;;
30080;SDS011;16902;50.816;12.828;2023-02-01T09:38:27;11.88;;;6.28;;
30080;SDS011;16902;50.816;12.828;2023-02-01T09:48:43;10.60;;;6.22;;
30080;SDS011;16902;50.816;12.828;2023-02-01T09:53:48;11.95;;;7.03;;
30080;SDS011;16902;50.816;12.828;2023-02-01T09:59:04;10.35;;;5.63;;
30080;SDS011;16902;50.816;12.828;2023-02-01T10:04:26;10.05;;;5.35;;
30080;SDS011;16902;50.816;12.828;2023-02-01T10:25:41;7.32;;;4.97;;
30080;SDS011;16902;50.816;12.828;2023-02-01T10:30:54;6.53;;;5.05;;
30080;SDS011;16902;50.816;12.828;2023-02-01T10:36:11;5.82;;;4.38;;
30080;SDS011;16902;50.816;12.828;2023-02-01T10:41:19;11.25;;;5.30;;
30080;SDS011;16902;50.816;12.828;2023-02-01T10:46:23;8.85;;;4.88;;
30080;SDS011;16902;50.816;12.828;2023-02-01T10:51:30;9.63;;;5.28;;
30080;SDS011;16902;50.816;12.828;2023-02-01T10:56:47;10.80;;;6.00;;
30080;SDS011;16902;50.816;12.828;2023-02-01T11:01:57;7.55;;;4.57;;
30080;SDS011;16902;50.816;12.828;2023-02-01T11:12:31;6.28;;;4.65;;
30080;SDS011;16902;50.816;12.828;2023-02-01T11:17:38;10.32;;;5.25;;
30080;SDS011;16902;50.816;12.828;2023-02-01T11:22:53;5.88;;;5.00;;
30080;SDS011;16902;50.816;12.828;2023-02-01T11:27:57;9.05;;;5.20;;
30080;SDS011;16902;50.816;12.828;2023-02-01T11:32:59;6.20;;;4.95;;
30080;SDS011;16902;50.816;12.828;2023-02-01T11:38:15;10.88;;;5.90;;
30080;SDS011;16902;50.816;12.828;2023-02-01T11:43:27;8.07;;;5.25;;
30080;SDS011;16902;50.816;12.828;2023-02-01T11:48:31;6.13;;;5.45;;
30080;SDS011;16902;50.816;12.828;2023-02-01T11:53:45;6.72;;;5.10;;
30080;SDS011;16902;50.816;12.828;2023-02-01T12:09:39;5.88;;;5.30;;
30080;SDS011;16902;50.816;12.828;2023-02-01T12:52:21;7.88;;;6.00;;
30080;SDS011;16902;50.816;12.828;2023-02-01T12:57:33;8.57;;;5.50;;
30080;SDS011;16902;50.816;12.828;2023-02-01T13:03:01;9.05;;;5.57;;
30080;SDS011;16902;50.816;12.828;2023-02-01T13:08:36;8.30;;;5.78;;
30080;SDS011;16902;50.816;12.828;2023-02-01T13:19:00;7.45;;;6.28;;
30080;SDS011;16902;50.816;12.828;2023-02-01T13:24:15;8.68;;;6.82;;
30080;SDS011;16902;50.816;12.828;2023-02-01T13:29:40;7.05;;;6.35;;
30080;SDS011;16902;50.816;12.828;2023-02-01T13:40:43;8.00;;;7.20;;
30080;SDS011;16902;50.816;12.828;2023-02-01T13:45:50;9.68;;;7.22;;
30080;SDS011;16902;50.816;12.828;2023-02-01T13:50:56;7.80;;;7.00;;
30080;SDS011;16902;50.816;12.828;2023-02-01T14:11:33;10.25;;;6.90;;
30080;SDS011;16902;50.816;12.828;2023-02-01T14:27:28;9.50;;;7.28;;
30080;SDS011;16902;50.816;12.828;2023-02-01T14:32:39;7.60;;;6.88;;
30080;SDS011;16902;50.816;12.828;2023-02-01T14:37:50;7.85;;;6.85;;
30080;SDS011;16902;50.816;12.828;2023-02-01T14:42:54;7.18;;;6.47;;
30080;SDS011;16902;50.816;12.828;2023-02-01T14:58:57;11.73;;;6.85;;
30080;SDS011;16902;50.816;12.828;2023-02-01T15:14:15;7.40;;;6.55;;
30080;SDS011;16902;50.816;12.828;2023-02-01T15:19:16;7.55;;;6.45;;
30080;SDS011;16902;50.816;12.828;2023-02-01T15:29:23;9.90;;;6.95;;
30080;SDS011;16902;50.816;12.828;2023-02-01T15:34:47;7.47;;;6.15;;
30080;SDS011;16902;50.816;12.828;2023-02-01T15:45:29;10.18;;;6.97;;
30080;SDS011;16902;50.816;12.828;2023-02-01T15:50:34;8.38;;;6.30;;
30080;SDS011;16902;50.816;12.828;2023-02-01T15:55:41;7.43;;;6.35;;
30080;SDS011;16902;50.816;12.828;2023-02-01T16:00:45;13.13;;;8.07;;
30080;SDS011;16902;50.816;12.828;2023-02-01T16:05:54;7.75;;;6.10;;
30080;SDS011;16902;50.816;12.828;2023-02-01T16:11:01;6.75;;;6.13;;
30080;SDS011;16902;50.816;12.828;2023-02-01T16:16:22;9.77;;;6.40;;
30080;SDS011;16902;50.816;12.828;2023-02-01T16:21:24;6.90;;;6.20;;
30080;SDS011;16902;50.816;12.828;2023-02-01T16:26:26;7.07;;;6.38;;
30080;SDS011;16902;50.816;12.828;2023-02-01T16:31:28;7.50;;;6.30;;
30080;SDS011;16902;50.816;12.828;2023-02-01T16:36:32;8.20;;;6.28;;
30080;SDS011;16902;50.816;12.828;2023-02-01T16:41:35;5.88;;;5.20;;
30080;SDS011;16902;50.816;12.828;2023-02-01T16:46:41;8.02;;;5.90;;
30080;SDS011;16902;50.816;12.828;2023-02-01T16:51:45;6.80;;;4.50;;
30080;SDS011;16902;50.816;12.828;2023-02-01T16:56:51;4.50;;;3.90;;
30080;SDS011;16902;50.816;12.828;2023-02-01T17:01:53;7.07;;;4.80;;
30080;SDS011;16902;50.816;12.828;2023-02-01T17:06:54;1.73;;;1.63;;
30080;SDS011;16902;50.816;12.828;2023-02-01T17:11:56;0.93;;;0.93;;
30080;SDS011;16902;50.816;12.828;2023-02-01T17:16:58;1.10;;;1.10;;
30080;SDS011;16902;50.816;12.828;2023-02-01T17:22:01;0.90;;;0.90;;
30080;SDS011;16902;50.816;12.828;2023-02-01T17:27:02;1.30;;;1.00;;
30080;SDS011;16902;50.816;12.828;2023-02-01T17:32:05;0.90;;;0.90;;
30080;SDS011;16902;50.816;12.828;2023-02-01T17:37:22;1.10;;;1.10;;
30080;SDS011;16902;50.816;12.828;2023-02-01T17:42:24;0.90;;;0.90;;
30080;SDS011;16902;50.816;12.828;2023-02-01T17:47:28;1.33;;;1.10;;
30080;SDS011;16902;50.816;12.828;2023-02-01T17:52:30;1.77;;;1.50;;
30080;SDS011;16902;50.816;12.828;2023-02-01T17:57:31;1.73;;;1.20;;
30080;SDS011;16902;50.816;12.828;2023-02-01T18:02:33;1.77;;;1.40;;
30080;SDS011;16902;50.816;12.828;2023-02-01T18:07:35;2.35;;;1.75;;
30080;SDS011;16902;50.816;12.828;2023-02-01T18:12:37;1.73;;;1.63;;
30080;SDS011;16902;50.816;12.828;2023-02-01T18:17:39;2.03;;;1.55;;
30080;SDS011;16902;50.816;12.828;2023-02-01T18:22:42;3.73;;;1.63;;
30080;SDS011;16902;50.816;12.828;2023-02-01T18:27:44;4.93;;;2.60;;
30080;SDS011;16902;50.816;12.828;2023-02-01T18:32:47;4.63;;;2.90;;
30080;SDS011;16902;50.816;12.828;2023-02-01T18:37:50;6.90;;;2.47;;
30080;SDS011;16902;50.816;12.828;2023-02-01T18:42:52;4.75;;;3.05;;
30080;SDS011;16902;50.816;12.828;2023-02-01T18:47:55;4.15;;;2.42;;
30080;SDS011;16902;50.816;12.828;2023-02-01T18:52:58;4.38;;;3.20;;
30080;SDS011;16902;50.816;12.828;2023-02-01T18:58:02;5.03;;;3.05;;
30080;SDS011;16902;50.816;12.828;2023-02-01T19:03:05;3.92;;;3.33;;
30080;SDS011;16902;50.816;12.828;2023-02-01T19:08:07;5.10;;;3.67;;
30080;SDS011;16902;50.816;12.828;2023-02-01T19:13:10;8.10;;;4.20;;
30080;SDS011;16902;50.816;12.828;2023-02-01T19:18:15;7.10;;;3.50;;
30080;SDS011;16902;50.816;12.828;2023-02-01T19:23:20;4.00;;;2.92;;
30080;SDS011;16902;50.816;12.828;2023-02-01T19:28:22;5.43;;;3.15;;
30080;SDS011;16902;50.816;12.828;2023-02-01T19:33:24;4.90;;;3.70;;
30080;SDS011;16902;50.816;12.828;2023-02-01T19:38:26;7.85;;;4.53;;
30080;SDS011;16902;50.816;12.828;2023-02-01T19:43:28;7.28;;;4.80;;
30080;SDS011;16902;50.816;12.828;2023-02-01T19:48:30;5.68;;;3.92;;
30080;SDS011;16902;50.816;12.828;2023-02-01T19:53:32;7.97;;;4.20;;
30080;SDS011;16902;50.816;12.828;2023-02-01T19:58:34;5.75;;;3.97;;
30080;SDS011;16902;50.816;12.828;2023-02-01T20:03:36;10.75;;;5.75;;
30080;SDS011;16902;50.816;12.828;2023-02-01T20:08:37;8.70;;;5.10;;
30080;SDS011;16902;50.816;12.828;2023-02-01T20:13:39;9.63;;;4.55;;
30080;SDS011;16902;50.816;12.828;2023-02-01T20:18:41;9.60;;;5.65;;
30080;SDS011;16902;50.816;12.828;2023-02-01T20:23:43;8.93;;;4.97;;
30080;SDS011;16902;50.816;12.828;2023-02-01T20:28:49;9.55;;;5.35;;
30080;SDS011;16902;50.816;12.828;2023-02-01T20:33:51;5.85;;;4.85;;
30080;SDS011;16902;50.816;12.828;2023-02-01T20:38:53;12.32;;;5.80;;
30080;SDS011;16902;50.816;12.828;2023-02-01T20:43:55;11.02;;;5.65;;
30080;SDS011;16902;50.816;12.828;2023-02-01T20:48:57;10.02;;;4.75;;
30080;SDS011;16902;50.816;12.828;2023-02-01T20:53:59;8.77;;;4.70;;
30080;SDS011;16902;50.816;12.828;2023-02-01T20:59:01;10.27;;;4.38;;
30080;SDS011;16902;50.816;12.828;2023-02-01T21:04:11;7.18;;;3.85;;
30080;SDS011;16902;50.816;12.828;2023-02-01T21:09:12;9.10;;;4.10;;
30080;SDS011;16902;50.816;12.828;2023-02-01T21:14:15;6.30;;;4.18;;
30080;SDS011;16902;50.816;12.828;2023-02-01T21:19:17;8.18;;;3.95;;
30080;SDS011;16902;50.816;12.828;2023-02-01T21:24:19;10.32;;;4.90;;
30080;SDS011;16902;50.816;12.828;2023-02-01T21:29:21;9.45;;;3.92;;
30080;SDS011;16902;50.816;12.828;2023-02-01T21:34:23;8.45;;;3.85;;
30080;SDS011;16902;50.816;12.828;2023-02-01T21:39:25;11.05;;;4.65;;
30080;SDS011;16902;50.816;12.828;2023-02-01T21:44:29;11.63;;;3.97;;
30080;SDS011;16902;50.816;12.828;2023-02-01T21:49:31;10.75;;;4.03;;
30080;SDS011;16902;50.816;12.828;2023-02-01T21:54:33;12.50;;;5.18;;
30080;SDS011;16902;50.816;12.828;2023-02-01T21:59:35;7.05;;;3.88;;
30080;SDS011;16902;50.816;12.828;2023-02-01T22:04:37;6.85;;;4.05;;
30080;SDS011;16902;50.816;12.828;2023-02-01T22:09:38;8.88;;;4.10;;
30080;SDS011;16902;50.816;12.828;2023-02-01T22:14:41;5.82;;;4.20;;
30080;SDS011;16902;50.816;12.828;2023-02-01T22:19:45;6.47;;;3.60;;
30080;SDS011;16902;50.816;12.828;2023-02-01T22:24:46;7.63;;;3.60;;
30080;SDS011;16902;50.816;12.828;2023-02-01T22:29:48;7.50;;;4.22;;
30080;SDS011;16902;50.816;12.828;2023-02-01T22:34:50;4.85;;;3.63;;
30080;SDS011;16902;50.816;12.828;2023-02-01T22:39:52;9.15;;;4.00;;
30080;SDS011;16902;50.816;12.828;2023-02-01T22:44:55;6.05;;;3.10;;
30080;SDS011;16902;50.816;12.828;2023-02-01T22:49:58;4.13;;;3.22;;
30080;SDS011;16902;50.816;12.828;2023-02-01T22:55:00;7.03;;;3.20;;
30080;SDS011;16902;50.816;12.828;2023-02-01T23:00:03;6.72;;;2.53;;
30080;SDS011;16902;50.816;12.828;2023-02-01T23:05:05;9.27;;;2.83;;
30080;SDS011;16902;50.816;12.828;2023-02-01T23:10:07;5.22;;;3.03;;
30080;SDS011;16902;50.816;12.828;2023-02-01T23:15:10;6.60;;;2.83;;
30080;SDS011;16902;50.816;12.828;2023-02-01T23:20:15;5.75;;;3.13;;
30080;SDS011;16902;50.816;12.828;2023-02-01T23:25:18;4.60;;;3.13;;
30080;SDS011;16902;50.816;12.828;2023-02-01T23:30:20;8.02;;;3.92;;
30080;SDS011;16902;50.816;12.828;2023-02-01T23:35:22;8.30;;;3.55;;
30080;SDS011;16902;50.816;12.828;2023-02-01T23:40:24;5.38;;;3.78;;
30080;SDS011;16902;50.816;12.828;2023-02-01T23:45:26;9.07;;;4.07;;
30080;SDS011;16902;50.816;12.828;2023-02-01T23:50:28;11.25;;;3.88;;
30080;SDS011;16902;50.816;12.828;2023-02-01T23:55:30;10.23;;;3.97;;
